Time;durP1;ratioP1;P1;durP2;ratioP2;P2;SDS_P1;SDS_P2;PMS_P1;PMS_P2;Temp;Humidity;BMP_temperature;BMP_pressure;BME280_temperature;BME280_humidity;BME280_pressure;Samples;Min_cycle;Max_cycle;Signal;HPM_P1;HPM_P2
2022/01/30 00:02:12;;;;;;;10.93;4.90;;;;;;;5.37;49.73;99583.97;4928811;29;20641;-86
2022/01/30 00:04:38;;;;;;;6.13;2.53;;;;;;;5.41;49.48;99583.00;4913778;29;20185;-85
2022/01/30 00:07:03;;;;;;;6.30;3.00;;;;;;;5.44;49.28;99580.34;4898567;29;20257;-85
2022/01/30 00:09:29;;;;;;;7.93;2.57;;;;;;;5.50;48.91;99572.38;4898088;29;20648;-85
2022/01/30 00:11:58;;;;;;;7.33;2.60;;;;;;;5.42;48.80;99572.56;4913037;29;20654;-85
2022/01/30 00:14:26;;;;;;;4.80;2.77;;;;;;;5.28;48.86;99577.25;4912631;29;20236;-85
2022/01/30 00:16:59;;;;;;;5.87;2.73;;;;;;;5.22;48.70;99571.34;4897839;29;20181;-86
2022/01/30 00:19:38;;;;;;;3.20;2.00;;;;;;;5.12;49.59;99569.84;4897083;29;20178;-86
2022/01/30 00:24:57;;;;;;;5.63;3.30;;;;;;;4.86;49.90;99563.53;4898091;29;20242;-86
2022/01/30 00:27:44;;;;;;;5.37;2.80;;;;;;;4.81;50.29;99559.31;4915762;29;20589;-86
2022/01/30 00:30:11;;;;;;;10.63;4.17;;;;;;;4.66;50.79;99555.34;4916199;29;20185;-87
2022/01/30 00:32:37;;;;;;;6.37;2.50;;;;;;;4.57;51.28;99558.13;4900315;29;20629;-87
2022/01/30 00:35:02;;;;;;;6.83;2.60;;;;;;;4.49;51.47;99556.56;4932675;29;20610;-87
2022/01/30 00:37:28;;;;;;;5.40;2.47;;;;;;;4.36;51.84;99553.38;4901989;29;20631;-87
2022/01/30 00:39:53;;;;;;;11.67;3.07;;;;;;;4.29;52.18;99555.28;4901726;29;20180;-87
2022/01/30 00:42:20;;;;;;;5.70;2.63;;;;;;;4.25;52.18;99553.59;4931995;29;20179;-88
2022/01/30 00:44:46;;;;;;;5.27;3.20;;;;;;;4.01;53.30;99548.91;4916404;29;20645;-88
2022/01/30 00:47:13;;;;;;;2.70;1.87;;;;;;;4.09;52.75;99552.22;4901042;29;20183;-88
2022/01/30 00:49:40;;;;;;;3.60;1.87;;;;;;;4.16;52.38;99547.75;4901244;29;20692;-89
2022/01/30 00:52:07;;;;;;;8.57;4.13;;;;;;;4.20;52.55;99545.06;4900863;29;20266;-88
2022/01/30 00:54:32;;;;;;;3.97;2.63;;;;;;;4.29;52.83;99536.25;4915983;29;20661;-89
2022/01/30 00:56:58;;;;;;;2.93;2.00;;;;;;;4.43;52.52;99530.78;4900774;29;20278;-88
2022/01/30 00:59:23;;;;;;;3.50;2.33;;;;;;;4.50;51.90;99524.56;4901121;29;20168;-88
2022/01/30 01:01:49;;;;;;;6.83;3.13;;;;;;;4.51;51.62;99523.69;4900802;29;20183;-88
2022/01/30 01:04:14;;;;;;;4.83;3.23;;;;;;;4.52;51.41;99512.38;4915504;29;20191;-88
2022/01/30 01:06:40;;;;;;;7.77;3.07;;;;;;;4.51;51.29;99513.28;4900958;29;20248;-89
2022/01/30 01:09:09;;;;;;;3.80;2.53;;;;;;;4.57;51.48;99510.53;4931685;29;20184;-88
2022/01/30 01:24:47;;;;;;;19.73;3.00;;;;;;;4.54;50.70;99475.13;4900545;29;20266;-88
2022/01/30 01:27:12;;;;;;;5.10;3.03;;;;;;;4.46;50.73;99469.25;4900431;29;20262;-88
2022/01/30 01:29:38;;;;;;;7.10;2.87;;;;;;;4.44;50.73;99454.59;4931187;29;20187;-88
2022/01/30 01:32:04;;;;;;;5.47;2.33;;;;;;;4.43;51.20;99450.31;4915016;29;20266;-88
2022/01/30 01:34:36;;;;;;;4.60;2.73;;;;;;;4.46;51.07;99447.63;4915239;29;20250;-88
2022/01/30 01:37:02;;;;;;;6.30;2.90;;;;;;;4.39;51.17;99443.47;4931470;29;20602;-88
2022/01/30 01:39:28;;;;;;;4.73;2.57;;;;;;;4.34;51.03;99439.25;4915175;29;20183;-88
2022/01/30 01:41:53;;;;;;;6.53;2.93;;;;;;;4.20;50.94;99437.84;4900338;29;20242;-88
2022/01/30 01:44:30;;;;;;;6.00;2.73;;;;;;;4.09;51.32;99427.69;4914829;29;20201;-88
2022/01/30 01:46:56;;;;;;;7.87;2.77;;;;;;;3.99;52.30;99415.81;4915623;29;20242;-89
2022/01/30 01:49:27;;;;;;;3.10;2.10;;;;;;;4.05;51.67;99413.09;4915343;29;20645;-89
2022/01/30 01:52:14;;;;;;;5.23;2.83;;;;;;;3.91;52.08;99407.34;4915002;29;20203;-89
2022/01/30 01:54:39;;;;;;;7.30;3.50;;;;;;;3.80;52.32;99400.72;4899821;29;20593;-89
2022/01/30 01:57:05;;;;;;;6.40;3.60;;;;;;;3.80;51.70;99395.53;4914557;29;20203;-88
2022/01/30 01:59:30;;;;;;;4.83;3.23;;;;;;;3.76;51.88;99389.53;4930383;29;20208;-88
2022/01/30 02:01:59;;;;;;;7.97;3.70;;;;;;;3.82;51.69;99393.75;4914477;29;20630;-89
2022/01/30 02:04:24;;;;;;;5.03;3.13;;;;;;;3.83;51.64;99401.47;4914759;29;20183;-89
2022/01/30 02:07:03;;;;;;;4.40;3.03;;;;;;;3.86;50.87;99397.97;4914648;29;20183;-89
2022/01/30 02:09:31;;;;;;;3.97;2.40;;;;;;;3.67;51.63;99387.13;4914997;29;20594;-89
2022/01/30 02:11:57;;;;;;;4.97;2.40;;;;;;;3.64;51.68;99384.63;4914578;29;20286;-89
2022/01/30 02:14:39;;;;;;;9.90;3.57;;;;;;;3.62;51.36;99379.47;4914237;29;20282;-89
2022/01/30 02:25:30;;;;;;;8.10;3.33;;;;;;;3.24;52.92;99381.13;4899855;29;20178;-89
2022/01/30 02:27:58;;;;;;;3.03;2.17;;;;;;;3.21;53.77;99383.75;4914573;29;20666;-89
2022/01/30 02:30:29;;;;;;;8.60;3.57;;;;;;;3.04;53.34;99382.34;4899460;29;20214;-89
2022/01/30 02:32:56;;;;;;;6.50;2.90;;;;;;;3.01;53.85;99381.56;4913890;29;20214;-89
2022/01/30 02:35:22;;;;;;;6.47;2.17;;;;;;;3.03;54.23;99382.38;4914779;29;20198;-90
2022/01/30 02:37:51;;;;;;;3.73;2.27;;;;;;;2.94;54.08;99378.22;4914235;29;20183;-90
2022/01/30 02:40:17;;;;;;;2.83;1.67;;;;;;;2.90;54.96;99384.34;4899008;29;20262;-90
2022/01/30 02:42:47;;;;;;;6.00;2.90;;;;;;;2.80;55.09;99382.81;4930128;29;20223;-90
2022/01/30 02:45:14;;;;;;;4.77;2.83;;;;;;;2.88;55.00;99380.91;4899056;29;20170;-90
2022/01/30 02:47:53;;;;;;;4.57;2.70;;;;;;;2.88;55.04;99367.97;4898893;29;20194;-90
2022/01/30 02:50:50;;;;;;;4.30;2.50;;;;;;;3.03;54.14;99367.69;4929696;29;20189;-90
2022/01/30 02:53:09;;;;;;;3.30;1.77;;;;;;;2.96;54.89;99360.91;4900839;29;20187;-90
2022/01/30 02:55:35;;;;;;;9.83;2.60;;;;;;;2.96;54.50;99360.91;4898982;29;20179;-91
2022/01/30 02:58:01;;;;;;;2.17;1.53;;;;;;;2.75;54.62;99358.69;4898903;29;20195;-90
2022/01/30 03:00:26;;;;;;;4.67;1.77;;;;;;;2.88;54.28;99351.59;4914051;29;20190;-90
2022/01/30 03:02:52;;;;;;;7.00;1.90;;;;;;;2.91;54.29;99352.38;4913890;29;20262;-90
2022/01/30 03:05:17;;;;;;;1.60;1.00;;;;;;;2.83;54.46;99348.25;4913612;29;20198;-93
2022/01/30 03:07:43;;;;;;;4.50;1.67;;;;;;;2.83;54.31;99343.91;4897929;29;20222;-92
2022/01/30 03:10:10;;;;;;;5.43;2.43;;;;;;;2.76;54.05;99347.47;4913516;29;20194;-90
2022/01/30 03:12:36;;;;;;;3.60;2.17;;;;;;;2.74;54.61;99338.91;4898743;29;20634;-90
2022/01/30 03:15:02;;;;;;;4.20;2.87;;;;;;;2.62;54.81;99335.69;4898654;29;20258;-91
2022/01/30 03:17:27;;;;;;;5.10;3.30;;;;;;;2.53;55.43;99326.34;4899190;29;20175;-91
2022/01/30 03:19:53;;;;;;;3.60;2.40;;;;;;;2.52;55.70;99318.63;4898799;29;20605;-90
2022/01/30 03:22:18;;;;;;;2.57;1.90;;;;;;;2.51;55.02;99320.34;4913324;29;20186;-92
2022/01/30 03:24:44;;;;;;;5.87;3.13;;;;;;;2.34;55.28;99317.16;4913282;29;20179;-90
2022/01/30 03:27:12;;;;;;;19.00;4.77;;;;;;;2.35;56.12;99322.34;4898583;29;20182;-90
2022/01/30 03:29:38;;;;;;;7.77;3.10;;;;;;;2.37;55.69;99318.00;4898540;29;20249;-91
2022/01/30 03:32:05;;;;;;;3.87;2.10;;;;;;;2.40;55.11;99317.06;4913100;29;20615;-91
2022/01/30 03:34:30;;;;;;;5.77;2.57;;;;;;;2.41;55.21;99318.81;4913238;29;20191;-91
2022/01/30 03:36:56;;;;;;;5.33;2.40;;;;;;;2.46;55.51;99311.81;4898431;29;20218;-90
2022/01/30 03:39:22;;;;;;;4.50;2.60;;;;;;;2.45;55.14;99312.69;4898338;29;20179;-91
2022/01/30 03:41:47;;;;;;;3.20;1.77;;;;;;;2.43;55.12;99314.44;4898416;29;20184;-91
2022/01/30 03:44:13;;;;;;;6.47;2.07;;;;;;;2.46;54.36;99307.47;4898226;29;20527;-90
2022/01/30 03:46:38;;;;;;;8.17;3.00;;;;;;;2.57;54.09;99309.88;4897401;29;20223;-91
2022/01/30 03:49:04;;;;;;;7.00;2.30;;;;;;;2.62;54.25;99308.03;4913170;29;20206;-91
2022/01/30 03:51:29;;;;;;;3.60;2.20;;;;;;;2.61;53.81;99306.34;4898480;29;20294;-91
2022/01/30 03:53:55;;;;;;;3.77;1.13;;;;;;;2.59;54.50;99308.13;4897261;29;20360;-91
2022/01/30 03:56:20;;;;;;;7.50;1.97;;;;;;;2.64;53.55;99295.97;4898171;29;20629;-92
2022/01/30 03:58:46;;;;;;;3.83;1.50;;;;;;;2.63;53.26;99290.78;4898113;29;20187;-92
2022/01/30 04:01:11;;;;;;;1.73;1.27;;;;;;;2.71;52.99;99292.38;4916135;29;20277;-92
2022/01/30 04:03:37;;;;;;;3.47;1.83;;;;;;;2.68;52.91;99295.00;4902039;29;20250;-92
2022/01/30 04:06:06;;;;;;;1.67;1.23;;;;;;;2.57;52.75;99294.34;4901994;29;20636;-91
2022/01/30 04:08:32;;;;;;;1.57;1.20;;;;;;;2.57;53.41;99291.75;4902112;29;20210;-91
2022/01/30 04:10:58;;;;;;;5.83;1.57;;;;;;;2.53;53.49;99287.53;4902135;29;20578;-92
2022/01/30 04:13:24;;;;;;;9.10;2.03;;;;;;;2.54;53.01;99286.66;4902079;29;20179;-91
2022/01/30 04:15:49;;;;;;;5.47;2.30;;;;;;;2.55;53.04;99279.72;4902128;29;20230;-92
2022/01/30 04:18:15;;;;;;;1.33;1.13;;;;;;;2.51;52.91;99278.09;4901805;29;20175;-92
2022/01/30 04:20:41;;;;;;;1.60;0.57;;;;;;;2.41;53.30;99277.41;4901876;29;20190;-92
2022/01/30 04:23:07;;;;;;;1.20;0.80;;;;;;;2.35;53.00;99272.34;4901865;29;20179;-93
2022/01/30 04:25:32;;;;;;;4.83;2.93;;;;;;;2.26;53.29;99272.47;4916786;29;20183;-92
2022/01/30 04:27:58;;;;;;;13.80;4.43;;;;;;;2.24;53.66;99266.50;4916602;29;20222;-94
2022/01/30 04:30:24;;;;;;;6.70;3.33;;;;;;;2.19;53.99;99264.00;4902233;29;20215;-92
2022/01/30 04:32:50;;;;;;;19.07;5.47;;;;;;;2.25;53.73;99265.63;4901690;29;20318;-93
2022/01/30 04:35:25;;;;;;;10.43;4.50;;;;;;;2.15;54.10;99269.25;4916624;29;20246;-92
2022/01/30 04:38:14;;;;;;;14.00;6.17;;;;;;;2.09;53.84;99267.63;4902487;29;20167;-92
2022/01/30 05:08:07;;;;;;;24.33;3.57;;;;;;;1.58;55.60;99279.59;4901380;29;20506;-92
2022/01/30 05:10:33;;;;;;;7.80;2.87;;;;;;;1.59;54.88;99281.31;4915838;29;20426;-92
2022/01/30 05:13:00;;;;;;;8.43;3.30;;;;;;;1.57;55.46;99285.63;4916108;29;20623;-92
2022/01/30 05:15:28;;;;;;;3.10;2.27;;;;;;;1.52;56.22;99277.09;4901294;29;20186;-92
2022/01/30 05:17:54;;;;;;;4.43;2.50;;;;;;;1.45;55.96;99279.78;4915745;29;20958;-91
2022/01/30 05:20:20;;;;;;;5.60;2.90;;;;;;;1.48;56.06;99275.44;4900712;29;20189;-91
2022/01/30 05:22:45;;;;;;;5.57;1.90;;;;;;;1.46;56.12;99266.88;4915618;29;20294;-92
2022/01/30 05:25:12;;;;;;;5.47;1.47;;;;;;;1.47;56.13;99257.41;4915548;29;20186;-91
2022/01/30 05:27:38;;;;;;;3.60;2.77;;;;;;;1.44;55.81;99253.09;4900458;29;20178;-92
2022/01/30 05:30:05;;;;;;;9.80;3.60;;;;;;;1.36;56.19;99259.28;4900858;29;20748;-91
2022/01/30 05:32:30;;;;;;;5.87;2.97;;;;;;;1.38;56.46;99260.97;4915257;29;20210;-92
2022/01/30 05:34:56;;;;;;;15.27;4.77;;;;;;;1.41;56.54;99263.50;4900449;29;20420;-91
2022/01/30 05:37:22;;;;;;;7.40;4.13;;;;;;;1.49;55.89;99259.09;4915552;29;20186;-92
2022/01/30 05:39:48;;;;;;;4.63;2.23;;;;;;;1.51;55.70;99257.31;4915125;29;20187;-91
2022/01/30 05:42:14;;;;;;;6.67;2.17;;;;;;;1.55;55.36;99261.56;4915534;29;20214;-91
2022/01/30 05:44:47;;;;;;;4.40;2.53;;;;;;;1.46;55.22;99266.00;4931485;29;20505;-90
2022/01/30 05:47:25;;;;;;;6.00;3.33;;;;;;;1.41;55.17;99267.81;4915139;29;20427;-92
2022/01/30 05:49:50;;;;;;;7.37;2.57;;;;;;;1.36;55.88;99260.13;4900844;29;20410;-93
2022/01/30 05:52:16;;;;;;;8.27;3.23;;;;;;;1.25;56.06;99262.00;4900410;29;20470;-91
2022/01/30 05:54:42;;;;;;;4.50;3.73;;;;;;;1.19;56.53;99250.03;4915267;29;20247;-91
2022/01/30 05:57:07;;;;;;;4.17;1.57;;;;;;;1.28;57.03;99237.88;4900675;29;20300;-91
2022/01/30 05:59:35;;;;;;;11.80;3.07;;;;;;;1.27;57.33;99242.16;4915682;29;20175;-92
2022/01/30 06:02:00;;;;;;;9.83;2.97;;;;;;;1.25;57.56;99228.44;4915210;29;20201;-92
2022/01/30 06:04:26;;;;;;;10.87;4.40;;;;;;;1.32;57.52;99221.44;4914772;29;20426;-91
2022/01/30 06:06:54;;;;;;;12.10;2.97;;;;;;;1.26;57.85;99217.22;4900540;29;20196;-91
2022/01/30 06:09:19;;;;;;;5.77;2.73;;;;;;;1.27;58.12;99206.03;4900048;29;20274;-92
2022/01/30 06:11:50;;;;;;;13.27;3.27;;;;;;;1.35;57.98;99201.59;4915383;29;20557;-92
2022/01/30 06:14:17;;;;;;;11.33;4.40;;;;;;;1.51;58.28;99197.06;4931054;29;20220;-92
2022/01/30 06:16:43;;;;;;;10.10;2.87;;;;;;;1.86;57.64;99182.69;4914991;29;20426;-92
2022/01/30 06:19:08;;;;;;;13.60;3.47;;;;;;;2.27;57.17;99175.94;4915056;29;20426;-93
2022/01/30 06:21:34;;;;;;;5.77;2.57;;;;;;;2.72;56.47;99164.69;4914900;29;20446;-94
2022/01/30 06:24:00;;;;;;;5.70;2.97;;;;;;;3.40;54.36;99149.38;4898915;29;20194;-94
2022/01/30 06:26:26;;;;;;;15.00;4.03;;;;;;;4.10;52.15;99154.47;4914777;29;20668;-94
2022/01/30 06:28:54;;;;;;;15.67;5.33;;;;;;;4.42;50.11;99145.84;4914905;29;20183;-93
2022/01/30 06:31:19;;;;;;;6.80;3.10;;;;;;;4.69;49.22;99144.22;4915008;29;20217;-95
2022/01/30 06:33:47;;;;;;;5.83;2.93;;;;;;;5.03;48.03;99131.94;4914813;29;20597;-94
2022/01/30 06:36:13;;;;;;;3.37;1.77;;;;;;;5.17;47.18;99111.56;4915115;29;20273;-93
2022/01/30 06:38:38;;;;;;;10.97;5.33;;;;;;;5.26;46.94;99116.47;4914574;29;20222;-93
2022/01/30 06:41:04;;;;;;;8.07;4.73;;;;;;;5.33;45.98;99106.72;4914412;29;20626;-93
2022/01/30 06:43:29;;;;;;;6.53;3.13;;;;;;;5.25;46.38;99103.53;4899437;29;20198;-93
2022/01/30 06:45:56;;;;;;;5.57;2.63;;;;;;;5.15;46.02;99113.34;4914506;29;20199;-93
2022/01/30 06:48:22;;;;;;;4.13;2.17;;;;;;;5.05;46.46;99087.72;4914368;29;20186;-92
2022/01/30 06:50:48;;;;;;;4.33;2.50;;;;;;;5.00;47.04;99082.66;4929985;29;20190;-93
2022/01/30 06:53:14;;;;;;;6.60;3.23;;;;;;;4.93;47.19;99081.13;4898500;29;20676;-93
2022/01/30 06:55:42;;;;;;;8.30;3.27;;;;;;;4.75;47.60;99077.38;4899273;29;20640;-93
2022/01/30 06:58:14;;;;;;;4.83;2.50;;;;;;;4.68;47.55;99086.25;4914065;29;20281;-92
2022/01/30 07:00:40;;;;;;;5.20;2.43;;;;;;;4.65;47.93;99086.31;4899148;29;20182;-93
2022/01/30 07:03:06;;;;;;;5.60;2.90;;;;;;;4.68;48.87;99090.56;4914064;29;20617;-94
2022/01/30 07:05:31;;;;;;;8.27;3.47;;;;;;;4.83;48.83;99096.16;4899427;29;20185;-92
2022/01/30 07:07:57;;;;;;;9.93;3.70;;;;;;;5.21;47.51;99097.59;4899084;29;20179;-91
2022/01/30 07:10:24;;;;;;;7.67;2.87;;;;;;;5.48;46.83;99109.69;4913676;29;20183;-91
2022/01/30 07:12:49;;;;;;;5.67;2.83;;;;;;;5.63;47.75;99113.53;4898668;29;20203;-91
2022/01/30 07:15:15;;;;;;;6.83;2.37;;;;;;;5.64;47.43;99122.16;4898762;29;20618;-90
2022/01/30 07:17:41;;;;;;;3.20;1.83;;;;;;;5.88;47.55;99118.78;4898741;29;20681;-90
2022/01/30 07:20:08;;;;;;;2.23;1.37;;;;;;;6.12;47.56;99117.97;4898989;29;20180;-89
2022/01/30 07:22:33;;;;;;;2.37;1.33;;;;;;;6.46;46.83;99121.06;4929049;29;20177;-90
2022/01/30 07:24:59;;;;;;;2.50;1.53;;;;;;;6.66;45.55;99118.56;4898399;29;20383;-88
2022/01/30 07:27:24;;;;;;;2.33;1.60;;;;;;;6.65;44.99;99148.13;4898540;29;20211;-89
2022/01/30 07:29:50;;;;;;;3.63;1.97;;;;;;;6.50;44.37;99145.25;4898180;29;20180;-88
2022/01/30 07:32:16;;;;;;;3.40;1.53;;;;;;;6.59;44.60;99148.34;4898152;29;20203;-88
2022/01/30 07:34:41;;;;;;;6.17;1.70;;;;;;;6.74;43.62;99137.38;4897241;29;20182;-88
2022/01/30 07:37:09;;;;;;;2.67;1.37;;;;;;;7.15;43.51;99124.53;4912988;29;20262;-88
2022/01/30 07:39:36;;;;;;;2.77;1.33;;;;;;;7.64;42.11;99108.63;4913555;29;20189;-88
2022/01/30 07:42:03;;;;;;;2.57;1.20;;;;;;;8.07;40.99;99105.03;4912910;29;20632;-88
2022/01/30 07:44:28;;;;;;;4.90;1.87;;;;;;;8.24;40.48;99096.47;4913208;29;20241;-88
2022/01/30 07:46:54;;;;;;;2.10;1.07;;;;;;;8.52;39.98;99087.38;4929381;29;20569;-89
2022/01/30 07:49:19;;;;;;;2.30;1.67;;;;;;;8.58;39.59;99081.03;4898038;29;20337;-88
2022/01/30 07:51:45;;;;;;;1.93;1.43;;;;;;;8.39;39.10;99083.63;4897924;29;20293;-88
2022/01/30 07:54:10;;;;;;;1.63;0.70;;;;;;;8.38;39.66;99089.78;4897959;29;20281;-88
2022/01/30 07:56:36;;;;;;;3.50;1.53;;;;;;;8.33;39.04;99085.69;4898164;29;20215;-88
2022/01/30 07:59:01;;;;;;;2.47;1.20;;;;;;;8.09;39.18;99086.72;4898251;29;20167;-87
2022/01/30 08:01:27;;;;;;;8.13;3.63;;;;;;;7.96;40.58;99079.41;4897931;29;20179;-87
2022/01/30 08:03:52;;;;;;;7.93;2.40;;;;;;;7.93;41.00;99089.13;4897905;29;20662;-88
2022/01/30 08:06:17;;;;;;;2.60;1.50;;;;;;;7.96;40.78;99087.25;4898196;29;20556;-88
2022/01/30 08:08:43;;;;;;;3.47;1.43;;;;;;;7.90;41.62;99089.25;4929300;29;20580;-87
2022/01/30 08:11:09;;;;;;;4.17;1.90;;;;;;;7.70;41.72;99074.47;4928462;29;20717;-87
2022/01/30 08:13:35;;;;;;;2.33;1.10;;;;;;;7.72;42.17;99072.63;4912942;29;20515;-87
2022/01/30 08:16:00;;;;;;;2.07;1.20;;;;;;;7.86;42.20;99082.50;4897807;29;20190;-88
2022/01/30 08:18:26;;;;;;;3.27;1.57;;;;;;;7.89;42.50;99077.13;4898102;29;20642;-87
2022/01/30 08:20:51;;;;;;;3.00;1.50;;;;;;;7.66;43.24;99072.88;4897807;29;20210;-87
2022/01/30 08:23:19;;;;;;;3.47;1.20;;;;;;;7.67;43.55;99074.59;4897065;29;20603;-87
2022/01/30 08:25:45;;;;;;;6.13;2.03;;;;;;;7.86;43.20;99072.06;4896633;29;20653;-89
2022/01/30 08:28:10;;;;;;;3.13;1.33;;;;;;;7.76;43.22;99070.72;4897243;29;20261;-88
2022/01/30 08:30:36;;;;;;;11.90;2.77;;;;;;;7.89;43.14;99057.09;4897525;29;20646;-87
2022/01/30 08:33:02;;;;;;;3.87;1.97;;;;;;;8.20;44.02;99053.97;4897653;29;20582;-88
2022/01/30 08:35:29;;;;;;;2.53;1.27;;;;;;;8.34;42.00;99045.56;4897662;29;20179;-87
2022/01/30 08:37:56;;;;;;;6.13;2.17;;;;;;;8.30;41.67;99034.44;4897006;29;20186;-88
2022/01/30 08:40:22;;;;;;;4.67;1.63;;;;;;;8.39;41.83;99017.47;4897601;29;20704;-87
2022/01/30 08:42:48;;;;;;;5.10;2.30;;;;;;;8.63;40.40;99008.53;4896863;29;20499;-88
2022/01/30 08:45:15;;;;;;;2.87;1.30;;;;;;;8.77;39.99;99006.13;4897575;29;20643;-87
2022/01/30 08:47:42;;;;;;;2.43;1.60;;;;;;;8.96;39.92;98998.25;4898761;29;20186;-87
2022/01/30 08:50:09;;;;;;;6.80;1.90;;;;;;;8.90;39.04;98983.72;4901213;29;20219;-87
2022/01/30 08:52:35;;;;;;;3.93;2.30;;;;;;;8.99;39.49;98975.41;4900378;29;20208;-88
2022/01/30 08:55:02;;;;;;;2.90;1.50;;;;;;;9.03;38.61;98974.34;4901275;29;20549;-87
2022/01/30 08:57:28;;;;;;;3.33;1.70;;;;;;;8.91;39.17;98988.00;4901025;29;20197;-86
2022/01/30 08:59:54;;;;;;;2.80;1.50;;;;;;;8.91;39.17;99005.47;4900914;29;20188;-87
2022/01/30 09:02:19;;;;;;;3.10;1.30;;;;;;;8.88;37.54;98996.00;4901153;29;20172;-87
2022/01/30 09:04:45;;;;;;;5.60;1.67;;;;;;;8.88;38.89;98993.41;4900873;29;20253;-87
2022/01/30 09:07:11;;;;;;;3.77;1.37;;;;;;;8.61;38.42;99002.53;4901047;29;20186;-87
2022/01/30 09:09:36;;;;;;;2.47;1.10;;;;;;;8.86;38.61;99008.28;4900744;29;20185;-87
2022/01/30 09:12:03;;;;;;;5.37;1.40;;;;;;;9.09;37.90;99000.19;4900683;29;20200;-87
2022/01/30 09:14:29;;;;;;;2.13;0.93;;;;;;;9.23;37.89;98992.50;4900660;29;20231;-86
2022/01/30 09:16:55;;;;;;;2.57;1.17;;;;;;;9.30;37.00;99002.69;4900880;29;20182;-86
2022/01/30 09:19:21;;;;;;;2.77;1.37;;;;;;;9.35;37.29;99005.91;4900610;29;20186;-87
2022/01/30 09:21:46;;;;;;;3.50;1.20;;;;;;;9.48;37.38;99012.22;4900767;29;20523;-86
2022/01/30 09:24:13;;;;;;;4.43;2.33;;;;;;;9.43;37.31;99009.00;4900710;29;20200;-87
2022/01/30 09:26:39;;;;;;;4.47;2.10;;;;;;;9.41;37.64;99005.63;4900423;29;20180;-87
2022/01/30 09:29:04;;;;;;;2.90;1.13;;;;;;;9.35;37.61;98988.47;4916008;29;20698;-87
2022/01/30 09:31:29;;;;;;;2.83;1.30;;;;;;;9.24;38.01;98975.06;4915348;29;20208;-87
2022/01/30 09:33:55;;;;;;;1.77;1.30;;;;;;;9.31;37.76;98972.97;4899671;29;20183;-87
2022/01/30 09:36:20;;;;;;;2.43;1.57;;;;;;;9.27;38.31;98962.69;4900208;29;20644;-88
2022/01/30 09:38:46;;;;;;;6.40;2.60;;;;;;;9.16;38.54;98949.28;4900474;29;20571;-88
2022/01/30 09:41:12;;;;;;;7.43;3.00;;;;;;;9.11;39.40;98951.28;4900157;29;20174;-88
2022/01/30 09:43:38;;;;;;;4.33;1.67;;;;;;;9.04;39.08;98939.44;4900354;29;20172;-87
2022/01/30 09:46:04;;;;;;;5.10;1.97;;;;;;;8.81;39.86;98920.56;4900065;29;20185;-88
2022/01/30 09:48:35;;;;;;;9.87;2.57;;;;;;;8.72;41.09;98926.25;4900292;29;20181;-88
2022/01/30 09:51:04;;;;;;;4.60;2.13;;;;;;;8.84;40.26;98926.50;4899851;29;20184;-89
2022/01/30 09:53:32;;;;;;;5.57;2.57;;;;;;;9.03;40.05;98932.53;4899014;29;20656;-87
2022/01/30 09:55:57;;;;;;;7.53;3.53;;;;;;;9.06;39.82;98927.16;4899903;29;20169;-88
2022/01/30 09:58:23;;;;;;;9.07;4.57;;;;;;;9.22;39.73;98916.78;4899550;29;20676;-87
2022/01/30 10:00:48;;;;;;;8.20;3.67;;;;;;;9.30;39.03;98916.38;4899972;29;20649;-87
2022/01/30 10:03:23;;;;;;;5.63;3.20;;;;;;;9.48;39.34;98907.59;4898760;29;20182;-88
2022/01/30 10:06:22;;;;;;;7.03;3.07;;;;;;;9.52;38.96;98890.78;4898857;29;20625;-87
2022/01/30 10:08:53;;;;;;;6.70;3.27;;;;;;;9.58;38.72;98882.63;4896158;29;20211;-87
2022/01/30 10:11:31;;;;;;;9.87;3.60;;;;;;;9.60;39.40;98875.53;4899864;29;20202;-87
2022/01/30 10:14:03;;;;;;;6.87;3.23;;;;;;;9.59;37.98;98866.84;4900146;29;20163;-87
2022/01/30 10:16:33;;;;;;;11.33;3.90;;;;;;;9.66;38.86;98868.22;4898811;29;20242;-87
2022/01/30 10:19:08;;;;;;;12.47;4.53;;;;;;;9.65;38.57;98849.97;4899741;29;20181;-87
2022/01/30 10:21:33;;;;;;;12.80;5.23;;;;;;;9.51;39.65;98847.25;4899326;29;20166;-87
2022/01/30 10:23:59;;;;;;;10.40;4.07;;;;;;;9.63;38.92;98841.34;4914017;29;20234;-87
2022/01/30 10:26:31;;;;;;;11.43;4.17;;;;;;;9.48;39.08;98844.81;4899014;29;20633;-86
2022/01/30 10:29:16;;;;;;;9.27;4.40;;;;;;;9.55;39.56;98841.78;4899276;29;20537;-87
2022/01/30 10:32:09;;;;;;;7.43;3.23;;;;;;;9.74;39.29;98832.03;4899495;29;20210;-87
2022/01/30 10:34:39;;;;;;;8.73;2.93;;;;;;;9.73;38.25;98843.41;4898217;29;20233;-87
2022/01/30 10:37:23;;;;;;;7.33;3.70;;;;;;;9.87;38.39;98837.44;4899512;29;20238;-87
2022/01/30 10:40:14;;;;;;;9.07;3.53;;;;;;;9.97;38.28;98822.91;4899637;29;20179;-87
2022/01/30 10:42:58;;;;;;;6.90;3.77;;;;;;;10.17;37.60;98824.44;4900057;29;20167;-87
2022/01/30 10:45:33;;;;;;;7.50;3.67;;;;;;;10.25;37.61;98820.47;4898355;29;20177;-87
2022/01/30 10:48:11;;;;;;;6.73;2.67;;;;;;;10.33;37.72;98820.88;4898488;29;20590;-88
2022/01/30 10:50:39;;;;;;;6.50;2.70;;;;;;;10.46;37.25;98821.88;4899564;29;20189;-87
2022/01/30 10:53:05;;;;;;;8.07;3.73;;;;;;;10.50;37.05;98817.31;4898734;29;20226;-87
2022/01/30 10:55:39;;;;;;;5.53;3.07;;;;;;;10.40;37.46;98810.91;4898049;29;20644;-87
2022/01/30 10:58:06;;;;;;;8.17;3.97;;;;;;;10.55;37.75;98806.56;4898743;29;20186;-87
2022/01/30 11:00:53;;;;;;;6.67;3.83;;;;;;;10.53;37.36;98796.19;4899159;29;20183;-87
2022/01/30 11:03:44;;;;;;;17.97;5.57;;;;;;;10.51;37.78;98794.56;4897813;29;20187;-87
2022/01/30 11:06:15;;;;;;;9.60;4.40;;;;;;;10.62;37.86;98786.91;4899093;29;20419;-87
2022/01/30 11:08:47;;;;;;;9.63;4.83;;;;;;;10.71;37.43;98781.16;4897998;29;20515;-88
2022/01/30 11:11:28;;;;;;;23.90;7.43;;;;;;;10.83;37.72;98772.56;4898026;29;20223;-88
2022/01/30 11:19:20;;;;;;;12.37;5.00;;;;;;;10.97;36.58;98726.22;4899086;29;20174;-87
2022/01/30 11:21:49;;;;;;;11.67;4.97;;;;;;;10.97;36.60;98715.75;4913285;29;20235;-88
2022/01/30 11:24:16;;;;;;;14.00;5.10;;;;;;;11.00;36.49;98705.06;4913312;29;20180;-88
2022/01/30 11:26:43;;;;;;;10.60;5.77;;;;;;;11.13;36.96;98691.19;4913469;29;20258;-88
2022/01/30 11:29:10;;;;;;;8.43;4.10;;;;;;;11.30;36.34;98689.19;4898470;29;20683;-88
2022/01/30 11:31:37;;;;;;;15.70;6.10;;;;;;;11.33;35.19;98694.25;4913070;29;20203;-87
2022/01/30 11:34:03;;;;;;;15.90;4.53;;;;;;;11.43;35.59;98684.03;4898452;29;20262;-87
2022/01/30 11:36:29;;;;;;;11.13;4.43;;;;;;;11.77;35.21;98678.34;4913624;29;20528;-88
2022/01/30 11:38:55;;;;;;;11.93;4.07;;;;;;;12.01;34.51;98670.66;4898259;29;20242;-87
2022/01/30 11:41:21;;;;;;;9.80;4.87;;;;;;;12.26;35.40;98666.28;4929123;29;20190;-87
2022/01/30 11:44:19;;;;;;;12.73;4.57;;;;;;;12.31;34.27;98644.97;4898432;29;20181;-88
2022/01/30 11:47:04;;;;;;;11.53;4.93;;;;;;;12.43;33.48;98635.41;4907392;29;20282;-88
2022/01/30 11:49:36;;;;;;;12.37;5.37;;;;;;;12.54;33.27;98625.00;4898525;29;20255;-87
2022/01/30 11:52:02;;;;;;;11.83;5.57;;;;;;;12.40;33.77;98607.53;4898056;29;20204;-87
2022/01/30 11:54:38;;;;;;;13.60;5.90;;;;;;;12.44;34.00;98609.03;4897849;29;20177;-88
2022/01/30 11:57:29;;;;;;;11.50;5.07;;;;;;;12.69;33.64;98606.38;4897924;29;20287;-88
2022/01/30 11:59:57;;;;;;;16.20;6.10;;;;;;;13.00;33.93;98614.78;4905813;29;20193;-88
2022/01/30 12:02:36;;;;;;;14.00;5.23;;;;;;;12.93;32.36;98609.09;4898087;29;20177;-87
2022/01/30 12:05:10;;;;;;;9.33;4.00;;;;;;;13.14;32.37;98601.50;4898306;29;20166;-88
2022/01/30 12:07:39;;;;;;;12.63;5.07;;;;;;;13.46;32.74;98597.41;4898284;29;20186;-87
2022/01/30 12:10:24;;;;;;;7.80;2.30;;;;;;;13.70;30.95;98605.28;4897927;29;20266;-88
2022/01/30 12:13:07;;;;;;;8.07;3.27;;;;;;;13.75;31.72;98598.75;4928536;29;20206;-87
2022/01/30 12:15:40;;;;;;;9.70;3.70;;;;;;;13.86;31.48;98595.31;4896979;29;20189;-89
2022/01/30 12:18:07;;;;;;;6.70;2.43;;;;;;;14.14;32.33;98593.13;4897879;29;20174;-88
2022/01/30 12:21:00;;;;;;;6.67;2.00;;;;;;;14.43;31.59;98585.66;4898107;29;20270;-88
2022/01/30 12:23:34;;;;;;;2.57;1.47;;;;;;;14.62;31.34;98585.09;4932224;29;20176;-88
2022/01/30 12:26:05;;;;;;;3.73;1.33;;;;;;;14.76;29.92;98584.84;4901763;29;20173;-87
2022/01/30 12:28:42;;;;;;;3.33;0.90;;;;;;;14.92;29.70;98580.03;4900665;29;20229;-88
2022/01/30 12:31:35;;;;;;;4.40;1.27;;;;;;;14.86;30.34;98571.78;4901362;29;20179;-88
2022/01/30 12:34:07;;;;;;;3.87;0.93;;;;;;;14.63;28.63;98563.00;4902334;29;20230;-89
2022/01/30 12:36:41;;;;;;;6.93;1.50;;;;;;;14.62;30.79;98571.91;4901246;29;20187;-93
2022/01/30 12:39:16;;;;;;;2.80;1.20;;;;;;;14.93;30.37;98557.97;4901548;29;20169;-87
2022/01/30 12:41:43;;;;;;;2.23;0.93;;;;;;;14.84;29.31;98558.69;4901725;29;20258;-88
2022/01/30 12:44:16;;;;;;;2.83;1.60;;;;;;;15.00;30.12;98538.03;4901204;29;20539;-87